Time;durP1;ratioP1;P1;durP2;ratioP2;P2;SDS_P1;SDS_P2;PMS_P1;PMS_P2;Temp;Humidity;BMP_temperature;BMP_pressure;BME280_temperature;BME280_humidity;BME280_pressure;Samples;Min_cycle;Max_cycle;Signal;HPM_P1;HPM_P2
2024/02/13 00:01:31;;;;;;;1.50;1.40;;;;;;;1.47;100.00;97123.19;1224267;75;2919554;-66
2024/02/13 00:04:05;;;;;;;1.60;1.30;;;;;;;1.44;100.00;97124.06;1224982;75;2935821;-65
2024/02/13 00:06:38;;;;;;;1.45;1.35;;;;;;;1.43;100.00;97119.84;1224659;75;2927531;-64
2024/02/13 00:09:11;;;;;;;1.45;1.30;;;;;;;1.42;100.00;97133.75;1225127;75;2915956;-66
2024/02/13 00:11:46;;;;;;;1.35;1.25;;;;;;;1.37;100.00;97135.03;1224681;75;2921444;-65
2024/02/13 00:14:20;;;;;;;1.60;1.20;;;;;;;1.42;100.00;97139.13;1224711;75;2916110;-66
2024/02/13 00:16:56;;;;;;;1.40;1.30;;;;;;;1.36;100.00;97138.16;1225858;75;2920317;-66
2024/02/13 00:19:30;;;;;;;1.50;1.30;;;;;;;1.25;100.00;97141.91;1224875;75;2915280;-66
2024/02/13 00:22:04;;;;;;;1.50;1.30;;;;;;;1.36;100.00;97146.25;1225524;75;2921360;-68
2024/02/13 00:24:37;;;;;;;1.00;0.90;;;;;;;1.24;100.00;97140.38;1224742;75;2932596;-67
2024/02/13 00:27:10;;;;;;;1.25;1.10;;;;;;;1.28;100.00;97138.34;1224336;75;2924146;-64
2024/02/13 00:29:44;;;;;;;1.40;1.20;;;;;;;1.23;100.00;97138.88;1225228;75;2915974;-65
2024/02/13 00:32:20;;;;;;;1.30;1.20;;;;;;;1.12;100.00;97154.56;1224707;75;2918231;-64
2024/02/13 00:34:52;;;;;;;1.30;1.20;;;;;;;1.06;100.00;97145.50;1225176;75;2921388;-64
2024/02/13 00:37:25;;;;;;;1.80;1.35;;;;;;;1.12;100.00;97149.16;1224471;75;2914432;-66
2024/02/13 00:39:58;;;;;;;1.60;1.40;;;;;;;1.15;100.00;97156.41;1225529;75;2919931;-64
2024/02/13 00:42:31;;;;;;;1.35;1.25;;;;;;;1.14;100.00;97154.16;1224939;75;2918564;-65
2024/02/13 00:45:07;;;;;;;1.25;1.15;;;;;;;1.05;100.00;97154.75;1224739;75;2933148;-64
2024/02/13 00:47:43;;;;;;;1.20;1.10;;;;;;;1.08;100.00;97161.97;1224817;75;2926541;-64
2024/02/13 00:50:16;;;;;;;1.40;1.30;;;;;;;0.99;100.00;97164.53;1223823;75;2920920;-67
2024/02/13 00:52:50;;;;;;;1.55;1.00;;;;;;;0.96;100.00;97159.97;1224523;75;2922935;-64
2024/02/13 00:55:22;;;;;;;1.55;1.20;;;;;;;0.85;100.00;97160.25;1225067;75;2918288;-66
2024/02/13 00:57:55;;;;;;;1.50;1.20;;;;;;;0.92;100.00;97157.38;1224920;75;2914268;-65
2024/02/13 01:00:28;;;;;;;1.25;1.15;;;;;;;0.88;100.00;97155.94;1224756;75;2917302;-65
2024/02/13 01:03:04;;;;;;;3.85;2.15;;;;;;;0.65;100.00;97168.44;1223665;75;2919437;-64
2024/02/13 01:05:40;;;;;;;1.80;1.60;;;;;;;0.80;100.00;97161.50;1224353;75;2919706;-65
2024/02/13 01:08:13;;;;;;;2.60;1.90;;;;;;;0.78;100.00;97161.16;1225736;75;2934256;-67
2024/02/13 01:10:46;;;;;;;2.75;1.30;;;;;;;0.62;100.00;97158.47;1224073;83;2923642;-65
2024/02/13 01:13:19;;;;;;;1.40;1.20;;;;;;;0.57;100.00;97157.06;1224543;75;2922371;-66
2024/02/13 01:15:52;;;;;;;1.25;1.15;;;;;;;0.59;100.00;97164.72;1225431;75;2906350;-63
2024/02/13 01:18:29;;;;;;;1.30;1.10;;;;;;;0.40;100.00;97174.38;1224987;75;2919209;-65
2024/02/13 01:21:03;;;;;;;2.75;1.60;;;;;;;0.49;100.00;97189.97;1225178;75;2916064;-65
2024/02/13 01:23:37;;;;;;;3.05;2.15;;;;;;;0.37;100.00;97194.81;1224775;75;2923731;-65
2024/02/13 01:26:10;;;;;;;2.25;1.90;;;;;;;0.55;100.00;97190.97;1225071;75;2927352;-66
2024/02/13 01:28:43;;;;;;;1.85;1.45;;;;;;;0.64;100.00;97181.13;1223106;75;3095808;-65
2024/02/13 01:31:16;;;;;;;2.35;1.65;;;;;;;0.69;100.00;97193.34;1224698;75;2921834;-66
2024/02/13 01:33:52;;;;;;;2.00;1.60;;;;;;;0.52;100.00;97187.19;1225080;75;2923129;-63
2024/02/13 01:36:24;;;;;;;3.75;2.50;;;;;;;0.60;100.00;97188.53;1224675;75;2917401;-64
2024/02/13 01:38:59;;;;;;;3.00;2.20;;;;;;;0.59;100.00;97195.09;1224524;75;2924354;-64
2024/02/13 01:41:33;;;;;;;2.85;2.00;;;;;;;0.51;100.00;97203.78;1224301;75;2931667;-64
2024/02/13 01:44:06;;;;;;;3.60;2.05;;;;;;;0.53;100.00;97212.16;1225041;75;2927677;-64
2024/02/13 01:46:39;;;;;;;2.45;1.90;;;;;;;0.57;100.00;97212.84;1225160;75;2919103;-64
2024/02/13 01:49:15;;;;;;;2.50;2.00;;;;;;;0.47;100.00;97214.63;1224619;75;2918182;-65
2024/02/13 01:51:48;;;;;;;2.90;2.00;;;;;;;0.55;100.00;97213.25;1224576;75;2922793;-65
2024/02/13 01:54:23;;;;;;;2.55;1.75;;;;;;;0.34;100.00;97219.91;1223875;75;2929534;-67
2024/02/13 01:56:56;;;;;;;1.50;1.40;;;;;;;0.46;100.00;97225.78;1224970;75;2918682;-65
2024/02/13 01:59:30;;;;;;;1.70;1.50;;;;;;;0.31;100.00;97234.19;1224631;75;2925345;-65
2024/02/13 02:02:02;;;;;;;1.70;1.50;;;;;;;0.41;100.00;97221.69;1224082;75;2917499;-63
2024/02/13 02:04:41;;;;;;;3.60;1.70;;;;;;;0.38;100.00;97228.63;1223227;75;2977107;-65
2024/02/13 02:07:13;;;;;;;;;;;;;;;0.52;100.00;97245.69;1225163;75;2948143;-64
2024/02/13 02:09:47;;;;;;;1.60;1.20;;;;;;;0.51;100.00;97241.47;1223764;75;2940648;-64
2024/02/13 02:12:20;;;;;;;2.05;1.30;;;;;;;0.56;100.00;97254.44;1224367;75;2926180;-66
2024/02/13 02:14:53;;;;;;;2.95;1.60;;;;;;;0.47;100.00;97254.25;1223885;75;2921644;-65
2024/02/13 02:17:26;;;;;;;2.20;1.65;;;;;;;0.57;100.00;97251.31;1225493;75;2918719;-65
2024/02/13 02:20:02;;;;;;;3.00;1.75;;;;;;;0.46;100.00;97258.88;1224550;75;2922826;-65
2024/02/13 02:22:34;;;;;;;2.45;2.00;;;;;;;0.72;100.00;97253.69;1224167;75;2916141;-64
2024/02/13 02:25:14;;;;;;;2.15;1.75;;;;;;;0.83;100.00;97256.91;1224163;75;2924016;-65
2024/02/13 02:27:46;;;;;;;3.10;1.90;;;;;;;0.92;100.00;97253.66;1224368;75;2920991;-65
2024/02/13 02:30:19;;;;;;;2.55;1.90;;;;;;;0.98;100.00;97257.34;1223840;75;2924524;-65
2024/02/13 02:32:52;;;;;;;2.15;1.60;;;;;;;1.02;100.00;97258.00;1225024;75;2918909;-64
2024/02/13 02:35:25;;;;;;;2.20;1.70;;;;;;;1.10;100.00;97262.03;1224747;75;2919088;-67
2024/02/13 02:37:58;;;;;;;2.55;2.20;;;;;;;1.12;100.00;97267.03;1224461;67;2919598;-65
2024/02/13 02:40:33;;;;;;;3.10;2.25;;;;;;;1.19;100.00;97270.31;1223643;75;2929060;-67
2024/02/13 02:43:07;;;;;;;3.55;2.50;;;;;;;1.24;100.00;97269.03;1222522;75;2922835;-63
2024/02/13 02:45:40;;;;;;;2.35;2.00;;;;;;;1.25;100.00;97257.06;1223542;75;2919793;-63
2024/02/13 02:48:13;;;;;;;3.40;2.35;;;;;;;1.33;100.00;97261.13;1223671;75;2921162;-64
2024/02/13 02:50:46;;;;;;;3.30;2.10;;;;;;;1.39;100.00;97267.50;1223448;75;2928923;-63
2024/02/13 02:53:18;;;;;;;2.30;1.95;;;;;;;1.23;100.00;97279.06;1223411;75;2922911;-67
2024/02/13 02:55:55;;;;;;;3.75;1.90;;;;;;;1.31;100.00;97287.00;1223415;75;2933832;-66
2024/02/13 02:58:28;;;;;;;2.70;2.20;;;;;;;1.35;100.00;97277.63;1223290;75;2927249;-63
2024/02/13 03:01:02;;;;;;;3.55;2.10;;;;;;;1.32;100.00;97283.09;1223091;75;2931453;-63
2024/02/13 03:03:34;;;;;;;2.70;2.00;;;;;;;3.18;100.00;97294.16;1223963;75;2923838;-67
2024/02/13 03:06:10;;;;;;;1.90;1.60;;;;;;;3.73;100.00;97293.88;1223444;75;2931108;-65
2024/02/13 03:08:44;;;;;;;2.35;1.80;;;;;;;4.17;100.00;97297.41;1223184;75;2941827;-65
2024/02/13 03:11:21;;;;;;;2.40;1.65;;;;;;;4.43;100.00;97300.75;1222511;75;2925036;-65
2024/02/13 03:13:54;;;;;;;1.75;1.50;;;;;;;4.53;100.00;97301.53;1223310;75;2923888;-65
2024/02/13 03:16:29;;;;;;;1.75;1.50;;;;;;;4.79;100.00;97306.81;1223217;75;2923822;-66
2024/02/13 03:19:02;;;;;;;1.85;1.45;;;;;;;4.87;100.00;97303.34;1223842;75;2924289;-64
2024/02/13 03:21:35;;;;;;;1.30;1.20;;;;;;;4.92;100.00;97307.44;1223285;75;2926936;-64
2024/02/13 03:24:09;;;;;;;1.55;1.30;;;;;;;4.90;100.00;97315.28;1223821;75;2924422;-63
2024/02/13 03:26:44;;;;;;;1.85;1.25;;;;;;;4.91;100.00;97328.41;1223542;75;2919754;-65
2024/02/13 03:29:17;;;;;;;1.95;1.10;;;;;;;5.13;100.00;97331.03;1223435;75;2924974;-65
2024/02/13 03:31:50;;;;;;;1.75;1.10;;;;;;;5.27;100.00;97327.03;1222929;75;2923291;-65
2024/02/13 03:34:23;;;;;;;1.30;1.00;;;;;;;5.26;100.00;97344.50;1224012;75;2930166;-62
2024/02/13 03:36:56;;;;;;;1.40;1.15;;;;;;;5.31;100.00;97337.72;1224205;75;2880644;-64
2024/02/13 03:39:29;;;;;;;0.75;0.75;;;;;;;5.36;100.00;97339.84;1223798;75;2920923;-65
2024/02/13 03:42:04;;;;;;;0.60;0.60;;;;;;;5.36;100.00;97345.28;1224181;75;2919637;-64
2024/02/13 03:44:37;;;;;;;0.80;0.80;;;;;;;5.39;100.00;97330.84;1223262;75;2923875;-65
2024/02/13 03:47:10;;;;;;;0.75;0.75;;;;;;;5.41;100.00;97338.50;1223623;75;2927846;-65
2024/02/13 03:49:43;;;;;;;0.75;0.75;;;;;;;5.34;100.00;97343.03;1224230;75;2920291;-64
2024/02/13 03:52:17;;;;;;;2.05;0.65;;;;;;;5.47;100.00;97342.91;1224756;75;2922631;-65
2024/02/13 03:54:50;;;;;;;0.70;0.70;;;;;;;5.57;100.00;97351.09;1224535;75;2919606;-64
2024/02/13 03:57:25;;;;;;;0.75;0.50;;;;;;;5.61;100.00;97355.16;1223850;75;2920733;-65
2024/02/13 03:59:58;;;;;;;0.60;0.50;;;;;;;5.50;100.00;97368.41;1225288;75;2921437;-65
2024/02/13 04:02:33;;;;;;;1.15;0.55;;;;;;;5.00;100.00;97371.06;1223818;75;2919213;-65
2024/02/13 04:05:06;;;;;;;3.05;1.75;;;;;;;4.28;100.00;97381.00;1224939;75;2917211;-66
2024/02/13 04:07:38;;;;;;;3.85;2.60;;;;;;;3.88;100.00;97392.41;1224681;75;2927404;-64
2024/02/13 04:10:12;;;;;;;5.15;3.75;;;;;;;3.16;100.00;97396.59;1224210;75;2921192;-64
2024/02/13 04:12:48;;;;;;;5.65;3.90;;;;;;;3.04;100.00;97395.38;1224795;75;2922320;-66
2024/02/13 04:15:22;;;;;;;4.45;3.70;;;;;;;2.97;100.00;97395.59;1223897;75;2924208;-63
2024/02/13 04:17:55;;;;;;;5.20;3.45;;;;;;;3.09;100.00;97397.56;1224049;75;2927904;-63
2024/02/13 04:20:28;;;;;;;3.90;3.35;;;;;;;3.31;100.00;97403.09;1225137;75;2921617;-65
2024/02/13 04:23:03;;;;;;;4.70;3.75;;;;;;;3.26;100.00;97402.88;1224523;75;2924009;-65
2024/02/13 04:25:36;;;;;;;4.10;3.70;;;;;;;3.20;100.00;97399.97;1225005;75;2921056;-64
2024/02/13 04:28:11;;;;;;;4.85;3.25;;;;;;;3.08;100.00;97403.38;1224584;75;2928820;-64
2024/02/13 04:30:44;;;;;;;5.00;3.50;;;;;;;2.90;100.00;97403.91;1224542;75;2924957;-64
2024/02/13 04:33:17;;;;;;;3.95;3.30;;;;;;;3.03;100.00;97412.81;1224231;75;2923720;-64
2024/02/13 04:35:50;;;;;;;3.10;2.60;;;;;;;2.97;100.00;97403.72;1224448;75;2924412;-67
2024/02/13 04:38:23;;;;;;;3.70;2.70;;;;;;;2.93;100.00;97401.09;1223873;75;2923345;-67
2024/02/13 04:40:55;;;;;;;5.50;2.90;;;;;;;2.53;100.00;97412.25;1224608;75;2922193;-66
2024/02/13 04:43:32;;;;;;;2.90;2.55;;;;;;;2.60;100.00;97418.63;1223454;75;2920198;-66
2024/02/13 04:46:06;;;;;;;2.80;2.05;;;;;;;2.64;100.00;97419.31;1224847;75;2917770;-67
2024/02/13 04:48:39;;;;;;;3.75;2.90;;;;;;;2.35;100.00;97418.13;1224387;75;2927430;-66
2024/02/13 04:51:12;;;;;;;4.65;3.15;;;;;;;2.19;100.00;97420.09;1224013;75;2915652;-65
2024/02/13 04:53:45;;;;;;;4.05;3.30;;;;;;;2.17;100.00;97419.78;1223735;75;2919844;-67
2024/02/13 04:56:18;;;;;;;4.20;2.80;;;;;;;2.16;100.00;97421.72;1224778;75;2922837;-65
2024/02/13 04:58:55;;;;;;;4.15;3.10;;;;;;;1.99;100.00;97420.97;1224473;75;2934015;-64
2024/02/13 05:01:29;;;;;;;3.60;2.80;;;;;;;2.23;100.00;97421.53;1224591;75;2909013;-65
2024/02/13 05:09:41;;;;;;;5.00;3.90;;;;;;;2.04;100.00;97425.88;1223482;75;2926342;-65
2024/02/13 05:12:14;;;;;;;5.30;3.45;;;;;;;2.16;100.00;97431.75;1222458;75;2928464;-64
2024/02/13 05:14:50;;;;;;;6.70;4.70;;;;;;;2.04;100.00;97435.91;1223766;75;2918748;-65
2024/02/13 05:17:23;;;;;;;7.25;4.20;;;;;;;2.26;100.00;97444.22;1223800;75;2921969;-65
2024/02/13 05:19:56;;;;;;;9.25;4.35;;;;;;;2.32;100.00;97443.28;1223912;75;2924504;-65
2024/02/13 05:22:29;;;;;;;4.25;2.85;;;;;;;2.54;100.00;97448.88;1223922;75;2921483;-66
2024/02/13 05:25:02;;;;;;;5.60;2.40;;;;;;;2.67;100.00;97448.97;1223403;75;2926276;-63
2024/02/13 05:27:35;;;;;;;8.30;2.10;;;;;;;2.86;100.00;97457.31;1223789;75;2948866;-63
2024/02/13 05:30:12;;;;;;;4.10;2.95;;;;;;;2.30;100.00;97458.41;1223974;75;2926321;-63
2024/02/13 05:32:45;;;;;;;3.15;2.45;;;;;;;2.49;100.00;97473.72;1224419;75;2929769;-65
2024/02/13 05:35:18;;;;;;;2.90;2.15;;;;;;;2.51;100.00;97470.63;1223316;75;2925801;-66
2024/02/13 05:37:51;;;;;;;2.40;2.00;;;;;;;2.52;100.00;97475.56;1224279;75;2922876;-65
2024/02/13 05:40:24;;;;;;;2.75;2.10;;;;;;;2.24;100.00;97479.78;1223679;75;2923248;-66
2024/02/13 05:42:57;;;;;;;2.75;2.00;;;;;;;2.07;100.00;97492.53;1222922;75;2929021;-65
2024/02/13 05:45:33;;;;;;;3.75;2.85;;;;;;;1.90;100.00;97497.19;1223544;75;2938219;-66
2024/02/13 05:48:07;;;;;;;2.90;2.35;;;;;;;2.03;100.00;97497.25;1223583;75;2925204;-65
2024/02/13 05:50:39;;;;;;;3.75;2.90;;;;;;;2.15;100.00;97498.53;1222801;75;2934080;-64
2024/02/13 05:53:12;;;;;;;2.70;2.30;;;;;;;2.21;100.00;97501.47;1223522;75;2928415;-63
2024/02/13 05:55:45;;;;;;;4.10;2.45;;;;;;;1.98;100.00;97500.47;1223192;75;2920066;-65
2024/02/13 05:58:18;;;;;;;17.55;12.85;;;;;;;2.12;100.00;97504.78;1223721;75;2925486;-67
2024/02/13 06:00:54;;;;;;;16.75;12.70;;;;;;;2.11;100.00;97512.09;1220676;75;3093727;-65
2024/02/13 06:03:26;;;;;;;10.60;8.45;;;;;;;2.00;100.00;97516.25;1224106;75;2926929;-65
2024/02/13 06:05:59;;;;;;;5.10;4.25;;;;;;;1.75;100.00;97520.25;1223658;75;2925344;-64
2024/02/13 06:08:33;;;;;;;4.85;3.30;;;;;;;1.52;100.00;97517.69;1223621;75;2920921;-64
2024/02/13 06:11:06;;;;;;;3.40;2.70;;;;;;;1.86;100.00;97533.53;1222744;75;2926112;-65
2024/02/13 06:13:41;;;;;;;4.70;2.30;;;;;;;1.92;100.00;97531.81;1222119;75;2926157;-69
2024/02/13 06:16:17;;;;;;;2.00;1.80;;;;;;;1.85;100.00;97537.38;1223702;75;2923750;-65
2024/02/13 06:18:50;;;;;;;2.05;1.85;;;;;;;1.67;100.00;97535.84;1222551;75;2928685;-64
2024/02/13 06:21:23;;;;;;;1.65;1.55;;;;;;;1.85;100.00;97542.78;1222938;75;2926502;-66
2024/02/13 06:23:56;;;;;;;1.95;1.60;;;;;;;1.91;100.00;97547.28;1223206;75;2921987;-65
2024/02/13 06:26:29;;;;;;;1.90;1.60;;;;;;;1.65;100.00;97549.00;1222095;75;2933535;-65
2024/02/13 06:29:02;;;;;;;1.60;1.45;;;;;;;1.73;100.00;97562.34;1223472;75;2922792;-66
2024/02/13 06:31:38;;;;;;;2.30;1.90;;;;;;;1.67;100.00;97564.78;1222748;75;2926909;-64
2024/02/13 06:34:11;;;;;;;2.90;2.35;;;;;;;1.80;100.00;97575.69;1222680;75;2928659;-65
2024/02/13 06:36:43;;;;;;;2.65;2.00;;;;;;;1.77;100.00;97582.66;1223202;75;2940610;-67
2024/02/13 06:39:20;;;;;;;2.15;1.85;;;;;;;1.83;100.00;97581.00;1221970;75;2936079;-66
2024/02/13 06:41:53;;;;;;;6.25;4.50;;;;;;;1.78;100.00;97591.53;1222418;75;2927687;-64
2024/02/13 06:44:27;;;;;;;3.65;3.00;;;;;;;1.81;100.00;97594.16;1223440;75;2922837;-65
2024/02/13 06:47:06;;;;;;;3.35;2.60;;;;;;;2.03;100.00;97605.25;1221899;75;2929151;-65
2024/02/13 06:49:39;;;;;;;2.40;2.00;;;;;;;2.15;100.00;97603.84;1222764;75;2938423;-66
2024/02/13 06:52:12;;;;;;;2.35;1.80;;;;;;;2.11;100.00;97616.66;1223052;75;2938034;-66
2024/02/13 06:54:45;;;;;;;2.80;1.70;;;;;;;2.09;100.00;97611.69;1223171;75;2925286;-66
2024/02/13 06:57:18;;;;;;;2.30;1.50;;;;;;;2.32;100.00;97620.81;1222983;75;2933194;-67
2024/02/13 06:59:51;;;;;;;2.85;2.00;;;;;;;2.35;100.00;97622.66;1222507;75;2931167;-65
2024/02/13 07:02:26;;;;;;;2.25;1.90;;;;;;;2.33;100.00;97615.00;1223620;75;2935584;-64
2024/02/13 07:04:59;;;;;;;2.60;2.15;;;;;;;2.81;100.00;97620.81;1223790;75;2923318;-65
2024/02/13 07:07:32;;;;;;;3.20;2.60;;;;;;;7.87;100.00;97620.41;1222956;75;2925263;-63
2024/02/13 07:10:05;;;;;;;2.55;2.30;;;;;;;7.52;82.84;97625.47;1223988;75;2933180;-65
2024/02/13 07:12:38;;;;;;;3.50;3.00;;;;;;;6.32;94.87;97639.63;1213327;75;2927667;-64
2024/02/13 07:15:12;;;;;;;5.45;4.30;;;;;;;6.10;96.15;97644.38;1222160;75;2934181;-63
2024/02/13 07:17:48;;;;;;;6.15;4.70;;;;;;;9.71;75.41;97640.44;1223566;83;2922632;-64
2024/02/13 07:20:22;;;;;;;15.90;12.80;;;;;;;7.79;80.20;97643.72;1222511;75;2920372;-63
2024/02/13 07:22:55;;;;;;;20.05;16.30;;;;;;;11.96;68.01;97645.50;1223062;75;2920959;-64
2024/02/13 07:25:28;;;;;;;13.25;11.00;;;;;;;12.84;59.67;97651.38;1221513;75;2922768;-63
2024/02/13 07:28:01;;;;;;;7.65;6.55;;;;;;;11.68;62.29;97660.41;1222566;75;2923794;-67
2024/02/13 07:30:34;;;;;;;7.60;5.55;;;;;;;11.90;61.06;97662.63;1223275;75;2935977;-66
2024/02/13 07:33:09;;;;;;;6.75;4.50;;;;;;;13.38;57.38;97654.16;1222117;75;2938666;-65
2024/02/13 07:35:42;;;;;;;6.50;4.30;;;;;;;12.08;61.06;97653.34;1223291;75;2919500;-64
2024/02/13 07:38:15;;;;;;;5.65;3.85;;;;;;;10.69;63.83;97669.66;1222819;75;2923695;-65
2024/02/13 07:40:48;;;;;;;5.25;3.85;;;;;;;8.96;70.08;97659.38;1221702;75;2921944;-64
2024/02/13 07:43:21;;;;;;;4.50;3.45;;;;;;;8.86;72.16;97666.13;1222843;75;2926648;-65
2024/02/13 07:45:54;;;;;;;5.45;3.50;;;;;;;8.31;74.01;97660.88;1222175;75;2949186;-66
2024/02/13 07:48:29;;;;;;;7.15;4.30;;;;;;;7.79;78.88;97668.25;1222091;75;2929783;-65
2024/02/13 07:51:02;;;;;;;6.70;4.40;;;;;;;8.16;79.06;97673.66;1221411;75;2917536;-65
2024/02/13 07:53:34;;;;;;;5.00;3.30;;;;;;;10.87;70.02;97669.41;1223016;75;2924998;-64
2024/02/13 07:56:10;;;;;;;4.35;3.05;;;;;;;12.75;63.28;97674.31;1222817;75;2924002;-66
2024/02/13 07:58:44;;;;;;;5.75;2.90;;;;;;;14.31;56.82;97669.84;1223062;75;2920492;-65
2024/02/13 08:01:25;;;;;;;5.10;3.65;;;;;;;16.30;51.77;97671.38;1221701;75;2931876;-63
2024/02/13 08:04:00;;;;;;;6.35;3.95;;;;;;;17.68;49.20;97671.72;1222103;75;2929952;-64
2024/02/13 08:06:34;;;;;;;5.55;4.10;;;;;;;16.18;51.35;97673.47;1223418;75;2922842;-65
2024/02/13 08:09:08;;;;;;;10.25;4.65;;;;;;;14.91;53.66;97677.81;1219470;75;2932460;-64
2024/02/13 08:11:41;;;;;;;8.55;4.80;;;;;;;13.36;56.52;97695.88;1222395;75;2919676;-66
2024/02/13 08:14:14;;;;;;;9.95;5.80;;;;;;;11.69;61.68;97705.81;1223844;75;2920892;-65
2024/02/13 08:16:47;;;;;;;8.50;5.60;;;;;;;11.89;61.11;97702.28;1223005;75;2929240;-65
2024/02/13 08:19:22;;;;;;;9.25;6.20;;;;;;;12.04;60.88;97706.94;1222438;75;2926971;-64
2024/02/13 08:21:55;;;;;;;8.20;4.70;;;;;;;12.47;60.12;97699.56;1222771;75;2926431;-66
2024/02/13 08:24:28;;;;;;;10.30;5.30;;;;;;;11.47;62.37;97703.56;1223396;75;2925098;-64
2024/02/13 08:27:00;;;;;;;6.20;4.95;;;;;;;11.08;65.27;97703.06;1222692;75;2924802;-67
2024/02/13 08:29:33;;;;;;;6.15;4.50;;;;;;;12.55;62.92;97705.38;1223269;75;2915033;-68
2024/02/13 08:32:07;;;;;;;7.15;4.20;;;;;;;13.78;59.82;97696.28;1222996;75;2919361;-64
2024/02/13 08:34:43;;;;;;;5.30;3.70;;;;;;;14.21;59.49;97693.34;1223100;75;2924141;-65
2024/02/13 08:37:15;;;;;;;6.80;4.05;;;;;;;11.06;64.22;97711.00;1223943;75;2897380;-63
2024/02/13 08:39:48;;;;;;;12.05;4.40;;;;;;;11.89;64.54;97707.78;1222048;75;2918159;-65
2024/02/13 08:42:21;;;;;;;7.10;4.70;;;;;;;12.25;64.94;97713.88;1222000;75;2925195;-66
2024/02/13 08:44:56;;;;;;;7.95;5.15;;;;;;;11.49;65.45;97712.03;1223803;75;2918995;-66
2024/02/13 08:47:28;;;;;;;9.40;4.50;;;;;;;10.64;69.10;97709.41;1223132;75;2919871;-66
2024/02/13 08:50:05;;;;;;;5.50;4.25;;;;;;;11.74;67.04;97707.09;1224047;75;2921843;-65
2024/02/13 08:52:38;;;;;;;6.30;3.70;;;;;;;11.70;65.99;97720.25;1223314;75;2904056;-64
2024/02/13 08:55:13;;;;;;;6.70;3.85;;;;;;;11.05;68.99;97717.72;1223118;75;2924932;-68
2024/02/13 08:57:46;;;;;;;7.75;3.85;;;;;;;10.66;67.96;97717.91;1223788;75;2919847;-65
2024/02/13 09:00:20;;;;;;;6.25;3.65;;;;;;;11.48;67.34;97715.28;1222070;75;2929578;-67
2024/02/13 09:02:53;;;;;;;6.15;3.40;;;;;;;12.15;63.72;97721.50;1222664;75;2916504;-67
2024/02/13 09:05:29;;;;;;;6.30;2.80;;;;;;;14.07;61.02;97711.63;1219665;75;2964619;-66
2024/02/13 09:08:02;;;;;;;6.45;3.20;;;;;;;12.63;60.68;97728.41;1220459;75;2928030;-66
2024/02/13 09:10:36;;;;;;;3.95;2.70;;;;;;;13.48;62.61;97715.19;1213542;75;3355443;-67
2024/02/13 09:13:09;;;;;;;2.80;1.95;;;;;;;13.89;55.11;97712.06;1222768;75;2923290;-67
2024/02/13 09:15:44;;;;;;;6.35;2.05;;;;;;;14.18;53.12;97713.63;1222553;75;2922347;-68
2024/02/13 09:18:17;;;;;;;2.05;1.30;;;;;;;13.67;51.67;97710.00;1222553;75;2928430;-68
2024/02/13 09:20:52;;;;;;;2.05;0.70;;;;;;;12.22;51.68;97714.06;1221791;75;2925113;-66
2024/02/13 09:23:27;;;;;;;2.50;1.10;;;;;;;12.37;52.39;97722.94;1223406;75;2926550;-64
2024/02/13 09:26:00;;;;;;;0.45;0.30;;;;;;;12.98;50.25;97717.16;1223138;75;2929730;-65
2024/02/13 09:28:34;;;;;;;4.50;0.70;;;;;;;12.64;50.61;97721.66;1223064;75;2927347;-68
2024/02/13 09:31:08;;;;;;;0.30;0.30;;;;;;;12.79;49.97;97722.28;1221715;75;2928017;-64
2024/02/13 09:33:42;;;;;;;1.75;0.90;;;;;;;12.86;50.30;97723.81;1223295;75;2945053;-65
2024/02/13 09:36:20;;;;;;;2.10;0.65;;;;;;;12.33;50.81;97728.66;1222717;75;3022160;-66
2024/02/13 09:38:53;;;;;;;1.30;0.80;;;;;;;12.21;50.05;97732.53;1224464;75;2923670;-67
2024/02/13 09:41:25;;;;;;;2.10;0.80;;;;;;;12.68;50.79;97724.19;1222005;75;2927357;-65
2024/02/13 09:44:02;;;;;;;3.25;0.60;;;;;;;12.13;51.20;97726.72;1203856;75;4087177;-66
2024/02/13 09:46:37;;;;;;;1.45;0.60;;;;;;;11.93;51.47;97729.53;1222184;75;2939950;-65
2024/02/13 09:49:15;;;;;;;1.60;0.80;;;;;;;11.83;48.64;97726.13;1222026;75;2927643;-64
2024/02/13 09:51:56;;;;;;;0.40;0.40;;;;;;;13.06;46.26;97733.94;1222357;75;2932025;-65
2024/02/13 09:54:30;;;;;;;6.55;1.05;;;;;;;12.52;46.96;97729.06;1223088;75;2929337;-66
2024/02/13 09:57:05;;;;;;;3.40;0.90;;;;;;;13.17;47.44;97736.00;1223124;75;2922936;-68
2024/02/13 09:59:38;;;;;;;1.90;0.60;;;;;;;13.27;46.89;97737.34;1223367;75;2925737;-65
2024/02/13 10:02:11;;;;;;;1.65;0.80;;;;;;;13.21;48.04;97737.28;1222191;75;2933362;-65
2024/02/13 10:04:45;;;;;;;1.00;0.50;;;;;;;12.44;48.04;97733.50;1223555;75;2923658;-66
2024/02/13 10:07:22;;;;;;;3.10;0.40;;;;;;;12.20;48.60;97733.03;1222984;75;2927540;-67
2024/02/13 10:09:58;;;;;;;5.50;0.80;;;;;;;11.66;47.78;97725.19;1223047;75;2924934;-66
2024/02/13 10:12:31;;;;;;;1.60;0.75;;;;;;;11.96;47.74;97728.56;1222457;75;2926249;-65
2024/02/13 10:15:04;;;;;;;1.95;0.70;;;;;;;12.35;47.72;97737.16;1223762;75;2922649;-66
2024/02/13 10:17:36;;;;;;;3.50;0.50;;;;;;;13.39;46.65;97729.88;1223165;75;2926241;-68
2024/02/13 10:20:11;;;;;;;2.80;0.65;;;;;;;12.68;47.29;97733.19;1223648;75;2931029;-68
2024/02/13 10:22:54;;;;;;;0.95;0.50;;;;;;;13.59;45.34;97738.00;1223803;75;2925809;-66
2024/02/13 10:25:31;;;;;;;1.40;0.60;;;;;;;12.11;46.86;97742.91;1222548;75;2927649;-66
2024/02/13 10:28:06;;;;;;;2.40;0.75;;;;;;;11.96;46.46;97742.28;1224323;75;2924536;-68
2024/02/13 10:30:38;;;;;;;0.80;0.50;;;;;;;12.90;46.19;97734.59;1222681;75;2925284;-65
2024/02/13 10:33:11;;;;;;;1.65;0.50;;;;;;;13.41;48.33;97730.16;1222798;75;2926597;-64
2024/02/13 10:35:44;;;;;;;1.75;0.90;;;;;;;12.05;47.30;97727.63;1222610;75;2929484;-67
2024/02/13 10:38:23;;;;;;;2.90;1.05;;;;;;;11.48;48.93;97735.22;1223395;75;2937017;-65
2024/02/13 10:40:58;;;;;;;;;;;;;;;11.22;48.92;97726.91;1225853;75;2926138;-66
2024/02/13 10:43:32;;;;;;;3.20;0.75;;;;;;;11.20;49.14;97736.84;1223544;75;2923830;-68
2024/02/13 10:46:09;;;;;;;3.65;1.10;;;;;;;11.37;50.38;97735.06;1224289;75;2926999;-65
2024/02/13 10:48:49;;;;;;;3.20;0.80;;;;;;;11.06;50.07;97730.94;1223251;75;2930362;-65
2024/02/13 10:51:23;;;;;;;1.20;0.55;;;;;;;11.39;51.15;97737.34;1223016;75;2923531;-67
2024/02/13 10:54:12;;;;;;;3.13;0.80;;;;;;;11.10;49.92;97744.44;1122626;75;5930039;-64
2024/02/13 10:57:00;;;;;;;4.50;1.40;;;;;;;11.11;51.10;97740.44;1063582;75;5726502;-66
2024/02/13 10:59:35;;;;;;;2.60;1.40;;;;;;;10.58;50.94;97747.66;1175789;75;4824026;-67
2024/02/13 11:02:10;;;;;;;1.10;0.70;;;;;;;10.45;51.00;97744.44;1044313;75;10071783;-66
2024/02/13 11:04:47;;;;;;;2.70;1.00;;;;;;;10.48;52.11;97748.22;1031029;75;7926530;-64
2024/02/13 11:07:21;;;;;;;1.65;0.70;;;;;;;10.22;52.48;97746.78;1222270;75;2926125;-66
2024/02/13 11:09:57;;;;;;;2.50;0.80;;;;;;;10.21;53.34;97753.44;1223477;75;2923707;-66
2024/02/13 11:12:30;;;;;;;1.95;1.20;;;;;;;10.72;52.87;97762.53;1223332;75;2929565;-66
2024/02/13 11:15:12;;;;;;;1.40;0.70;;;;;;;11.16;51.17;97758.97;1224046;75;2922622;-67
2024/02/13 11:17:49;;;;;;;3.15;1.20;;;;;;;11.24;50.79;97751.84;1224492;75;2923730;-64
2024/02/13 11:20:28;;;;;;;1.35;0.85;;;;;;;10.64;50.10;97743.00;1224078;75;2924797;-66
2024/02/13 11:23:04;;;;;;;1.25;0.50;;;;;;;10.98;50.22;97754.47;1223285;75;2930401;-66
2024/02/13 11:25:39;;;;;;;4.65;1.45;;;;;;;11.23;50.97;97747.59;1223053;75;2932069;-66
2024/02/13 11:28:14;;;;;;;2.65;0.85;;;;;;;11.36;49.72;97752.75;1223772;75;2928685;-65
2024/02/13 11:30:47;;;;;;;2.15;1.00;;;;;;;11.94;49.46;97756.47;1223600;75;2921605;-66
2024/02/13 11:33:21;;;;;;;0.80;0.40;;;;;;;11.69;49.66;97757.16;1223581;75;2923360;-66
2024/02/13 11:35:56;;;;;;;0.55;0.40;;;;;;;12.06;46.38;97760.09;1223738;75;2921575;-68
2024/02/13 11:38:30;;;;;;;1.20;0.40;;;;;;;11.26;46.88;97754.88;1222152;75;2983069;-67
2024/02/13 11:41:06;;;;;;;1.40;0.65;;;;;;;11.14;49.04;97755.94;1223720;75;2925420;-66
2024/02/13 11:43:39;;;;;;;0.40;0.40;;;;;;;11.48;48.67;97762.63;1223526;75;2931117;-65
2024/02/13 11:46:12;;;;;;;1.20;0.65;;;;;;;11.55;48.12;97758.72;1222376;75;2928308;-66
2024/02/13 11:48:46;;;;;;;1.20;0.35;;;;;;;11.27;49.07;97752.88;1222528;75;2925923;-66
2024/02/13 11:51:20;;;;;;;1.40;0.75;;;;;;;11.54;48.04;97759.19;1222841;75;2923854;-65
2024/02/13 11:53:54;;;;;;;0.85;0.35;;;;;;;11.59;46.79;97761.25;1223791;75;2922506;-65